sensor_id;sensor_type;location;lat;lon;timestamp;P1;durP1;ratioP1;P2;durP2;ratioP2
50213;SDS011;36103;54.176;12.070;2023-03-14T00:00:03;2.63;;;1.90;;
50213;SDS011;36103;54.176;12.070;2023-03-14T00:01:10;4.37;;;2.40;;
50213;SDS011;36103;54.176;12.070;2023-03-14T00:02:13;4.33;;;2.20;;
50213;SDS011;36103;54.176;12.070;2023-03-14T00:03:14;3.03;;;2.00;;
50213;SDS011;36103;54.176;12.070;2023-03-14T00:04:15;2.40;;;1.90;;
50213;SDS011;36103;54.176;12.070;2023-03-14T00:05:16;5.00;;;2.80;;
50213;SDS011;36103;54.176;12.070;2023-03-14T00:06:17;3.50;;;2.40;;
50213;SDS011;36103;54.176;12.070;2023-03-14T00:07:20;5.10;;;2.20;;
50213;SDS011;36103;54.176;12.070;2023-03-14T00:08:21;5.00;;;2.20;;
50213;SDS011;36103;54.176;12.070;2023-03-14T00:09:23;4.37;;;2.00;;
50213;SDS011;36103;54.176;12.070;2023-03-14T00:10:24;4.47;;;2.60;;
50213;SDS011;36103;54.176;12.070;2023-03-14T00:11:25;3.73;;;2.13;;
50213;SDS011;36103;54.176;12.070;2023-03-14T00:12:26;4.17;;;2.13;;
50213;SDS011;36103;54.176;12.070;2023-03-14T00:13:28;4.50;;;2.10;;
50213;SDS011;36103;54.176;12.070;2023-03-14T00:14:28;5.10;;;2.70;;
50213;SDS011;36103;54.176;12.070;2023-03-14T00:15:31;3.53;;;2.10;;
50213;SDS011;36103;54.176;12.070;2023-03-14T00:16:32;4.60;;;2.57;;
50213;SDS011;36103;54.176;12.070;2023-03-14T00:17:33;5.00;;;2.17;;
50213;SDS011;36103;54.176;12.070;2023-03-14T00:18:35;4.47;;;2.10;;
50213;SDS011;36103;54.176;12.070;2023-03-14T00:19:36;4.90;;;2.40;;
50213;SDS011;36103;54.176;12.070;2023-03-14T00:20:37;4.73;;;2.30;;
50213;SDS011;36103;54.176;12.070;2023-03-14T00:21:38;4.83;;;2.10;;
50213;SDS011;36103;54.176;12.070;2023-03-14T00:22:40;3.77;;;2.13;;
50213;SDS011;36103;54.176;12.070;2023-03-14T00:23:42;2.83;;;2.00;;
50213;SDS011;36103;54.176;12.070;2023-03-14T00:24:43;4.17;;;2.00;;
50213;SDS011;36103;54.176;12.070;2023-03-14T00:25:44;3.70;;;1.80;;
50213;SDS011;36103;54.176;12.070;2023-03-14T00:26:45;3.60;;;2.23;;
50213;SDS011;36103;54.176;12.070;2023-03-14T00:27:46;3.97;;;2.00;;
50213;SDS011;36103;54.176;12.070;2023-03-14T00:28:50;2.93;;;1.57;;
50213;SDS011;36103;54.176;12.070;2023-03-14T00:29:52;3.27;;;2.17;;
50213;SDS011;36103;54.176;12.070;2023-03-14T00:30:52;2.70;;;1.60;;
50213;SDS011;36103;54.176;12.070;2023-03-14T00:31:54;4.10;;;2.20;;
50213;SDS011;36103;54.176;12.070;2023-03-14T00:32:54;3.63;;;1.77;;
50213;SDS011;36103;54.176;12.070;2023-03-14T00:33:56;2.90;;;2.03;;
50213;SDS011;36103;54.176;12.070;2023-03-14T00:34:58;2.67;;;1.80;;
50213;SDS011;36103;54.176;12.070;2023-03-14T00:36:01;4.07;;;2.00;;
50213;SDS011;36103;54.176;12.070;2023-03-14T00:37:03;3.67;;;2.00;;
50213;SDS011;36103;54.176;12.070;2023-03-14T00:38:06;3.97;;;2.17;;
50213;SDS011;36103;54.176;12.070;2023-03-14T00:39:06;2.67;;;1.93;;
50213;SDS011;36103;54.176;12.070;2023-03-14T00:40:08;5.87;;;2.43;;
50213;SDS011;36103;54.176;12.070;2023-03-14T00:41:10;3.13;;;1.83;;
50213;SDS011;36103;54.176;12.070;2023-03-14T00:42:13;4.00;;;2.40;;
50213;SDS011;36103;54.176;12.070;2023-03-14T00:43:13;2.80;;;1.83;;
50213;SDS011;36103;54.176;12.070;2023-03-14T00:44:15;4.57;;;2.53;;
50213;SDS011;36103;54.176;12.070;2023-03-14T00:45:15;4.57;;;2.20;;
50213;SDS011;36103;54.176;12.070;2023-03-14T00:46:17;3.70;;;1.70;;
50213;SDS011;36103;54.176;12.070;2023-03-14T00:47:17;3.87;;;2.27;;
50213;SDS011;36103;54.176;12.070;2023-03-14T00:48:19;4.17;;;2.20;;
50213;SDS011;36103;54.176;12.070;2023-03-14T00:49:20;4.10;;;2.30;;
50213;SDS011;36103;54.176;12.070;2023-03-14T00:50:21;3.03;;;1.87;;
50213;SDS011;36103;54.176;12.070;2023-03-14T00:51:22;3.00;;;1.83;;
50213;SDS011;36103;54.176;12.070;2023-03-14T00:52:23;2.47;;;1.77;;
50213;SDS011;36103;54.176;12.070;2023-03-14T00:53:25;4.50;;;2.00;;
50213;SDS011;36103;54.176;12.070;2023-03-14T00:54:26;4.00;;;2.07;;
50213;SDS011;36103;54.176;12.070;2023-03-14T00:55:27;4.43;;;2.03;;
50213;SDS011;36103;54.176;12.070;2023-03-14T00:56:28;3.97;;;2.03;;
50213;SDS011;36103;54.176;12.070;2023-03-14T00:57:29;3.93;;;1.90;;
50213;SDS011;36103;54.176;12.070;2023-03-14T00:58:30;3.33;;;1.90;;
50213;SDS011;36103;54.176;12.070;2023-03-14T00:59:31;3.57;;;2.07;;
50213;SDS011;36103;54.176;12.070;2023-03-14T01:00:32;4.40;;;2.10;;
50213;SDS011;36103;54.176;12.070;2023-03-14T01:01:33;3.60;;;2.10;;
50213;SDS011;36103;54.176;12.070;2023-03-14T01:02:34;5.07;;;2.00;;
50213;SDS011;36103;54.176;12.070;2023-03-14T01:03:35;2.03;;;1.70;;
50213;SDS011;36103;54.176;12.070;2023-03-14T01:04:37;3.47;;;1.80;;
50213;SDS011;36103;54.176;12.070;2023-03-14T01:05:39;3.90;;;1.80;;
50213;SDS011;36103;54.176;12.070;2023-03-14T01:06:42;2.57;;;1.60;;
50213;SDS011;36103;54.176;12.070;2023-03-14T01:07:44;3.80;;;2.00;;
50213;SDS011;36103;54.176;12.070;2023-03-14T01:08:47;4.70;;;2.03;;
50213;SDS011;36103;54.176;12.070;2023-03-14T01:09:50;4.77;;;2.00;;
50213;SDS011;36103;54.176;12.070;2023-03-14T01:10:52;4.73;;;2.10;;
50213;SDS011;36103;54.176;12.070;2023-03-14T01:11:52;2.90;;;1.80;;
50213;SDS011;36103;54.176;12.070;2023-03-14T01:12:54;3.83;;;1.57;;
50213;SDS011;36103;54.176;12.070;2023-03-14T01:13:55;2.67;;;1.60;;
50213;SDS011;36103;54.176;12.070;2023-03-14T01:14:57;2.00;;;1.70;;
50213;SDS011;36103;54.176;12.070;2023-03-14T01:16:00;2.13;;;1.67;;
50213;SDS011;36103;54.176;12.070;2023-03-14T01:17:04;2.47;;;1.60;;
50213;SDS011;36103;54.176;12.070;2023-03-14T01:18:04;2.60;;;1.77;;
50213;SDS011;36103;54.176;12.070;2023-03-14T01:19:06;3.27;;;2.00;;
50213;SDS011;36103;54.176;12.070;2023-03-14T01:20:07;3.30;;;1.80;;
50213;SDS011;36103;54.176;12.070;2023-03-14T01:21:11;2.27;;;1.70;;
50213;SDS011;36103;54.176;12.070;2023-03-14T01:22:13;2.87;;;1.50;;
50213;SDS011;36103;54.176;12.070;2023-03-14T01:23:14;2.73;;;2.03;;
50213;SDS011;36103;54.176;12.070;2023-03-14T01:24:16;2.93;;;1.80;;
50213;SDS011;36103;54.176;12.070;2023-03-14T01:25:18;3.23;;;2.10;;
50213;SDS011;36103;54.176;12.070;2023-03-14T01:26:19;3.13;;;1.70;;
50213;SDS011;36103;54.176;12.070;2023-03-14T01:27:22;3.37;;;1.80;;
50213;SDS011;36103;54.176;12.070;2023-03-14T01:28:23;2.13;;;1.53;;
50213;SDS011;36103;54.176;12.070;2023-03-14T01:29:24;2.83;;;1.67;;
50213;SDS011;36103;54.176;12.070;2023-03-14T01:30:25;3.50;;;1.97;;
50213;SDS011;36103;54.176;12.070;2023-03-14T01:31:27;2.50;;;1.70;;
50213;SDS011;36103;54.176;12.070;2023-03-14T01:32:28;2.90;;;1.73;;
50213;SDS011;36103;54.176;12.070;2023-03-14T01:33:30;3.50;;;1.77;;
50213;SDS011;36103;54.176;12.070;2023-03-14T01:34:30;3.50;;;1.60;;
50213;SDS011;36103;54.176;12.070;2023-03-14T01:35:32;2.87;;;1.70;;
50213;SDS011;36103;54.176;12.070;2023-03-14T01:36:33;3.90;;;1.73;;
50213;SDS011;36103;54.176;12.070;2023-03-14T01:37:35;4.20;;;1.70;;
50213;SDS011;36103;54.176;12.070;2023-03-14T01:38:37;2.07;;;1.53;;
50213;SDS011;36103;54.176;12.070;2023-03-14T01:39:42;3.00;;;1.73;;
50213;SDS011;36103;54.176;12.070;2023-03-14T01:40:43;2.83;;;1.70;;
50213;SDS011;36103;54.176;12.070;2023-03-14T01:41:44;3.40;;;1.93;;
50213;SDS011;36103;54.176;12.070;2023-03-14T01:42:45;3.00;;;1.80;;
50213;SDS011;36103;54.176;12.070;2023-03-14T01:43:47;3.80;;;1.83;;
50213;SDS011;36103;54.176;12.070;2023-03-14T01:44:49;2.13;;;1.63;;
50213;SDS011;36103;54.176;12.070;2023-03-14T01:47:20;2.83;;;1.80;;
50213;SDS011;36103;54.176;12.070;2023-03-14T01:48:22;2.97;;;1.40;;
50213;SDS011;36103;54.176;12.070;2023-03-14T01:49:24;3.03;;;1.67;;
50213;SDS011;36103;54.176;12.070;2023-03-14T01:50:34;2.73;;;1.93;;
50213;SDS011;36103;54.176;12.070;2023-03-14T01:51:36;1.87;;;1.43;;
50213;SDS011;36103;54.176;12.070;2023-03-14T01:52:42;2.70;;;1.50;;
50213;SDS011;36103;54.176;12.070;2023-03-14T01:53:46;2.17;;;1.53;;
50213;SDS011;36103;54.176;12.070;2023-03-14T01:54:50;2.83;;;1.77;;
50213;SDS011;36103;54.176;12.070;2023-03-14T01:55:54;3.10;;;1.67;;
50213;SDS011;36103;54.176;12.070;2023-03-14T01:56:57;2.47;;;1.60;;
50213;SDS011;36103;54.176;12.070;2023-03-14T01:58:00;1.70;;;1.50;;
50213;SDS011;36103;54.176;12.070;2023-03-14T01:59:04;2.57;;;1.70;;
50213;SDS011;36103;54.176;12.070;2023-03-14T02:00:09;3.00;;;1.73;;
50213;SDS011;36103;54.176;12.070;2023-03-14T02:01:17;2.47;;;1.70;;
50213;SDS011;36103;54.176;12.070;2023-03-14T02:02:20;2.20;;;1.40;;
50213;SDS011;36103;54.176;12.070;2023-03-14T02:03:22;2.37;;;1.60;;
50213;SDS011;36103;54.176;12.070;2023-03-14T02:04:25;2.57;;;1.40;;
50213;SDS011;36103;54.176;12.070;2023-03-14T02:05:30;3.63;;;1.83;;
50213;SDS011;36103;54.176;12.070;2023-03-14T02:06:42;2.70;;;1.53;;
50213;SDS011;36103;54.176;12.070;2023-03-14T02:07:49;1.97;;;1.40;;
50213;SDS011;36103;54.176;12.070;2023-03-14T02:08:56;3.23;;;1.40;;
50213;SDS011;36103;54.176;12.070;2023-03-14T02:10:01;2.10;;;1.57;;
50213;SDS011;36103;54.176;12.070;2023-03-14T02:11:05;2.80;;;1.63;;
50213;SDS011;36103;54.176;12.070;2023-03-14T02:12:18;3.87;;;1.87;;
50213;SDS011;36103;54.176;12.070;2023-03-14T02:13:25;2.33;;;1.40;;
50213;SDS011;36103;54.176;12.070;2023-03-14T02:14:46;4.43;;;1.50;;
50213;SDS011;36103;54.176;12.070;2023-03-14T02:16:09;2.87;;;1.47;;
50213;SDS011;36103;54.176;12.070;2023-03-14T02:17:16;3.37;;;1.70;;
50213;SDS011;36103;54.176;12.070;2023-03-14T02:18:33;2.03;;;1.40;;
50213;SDS011;36103;54.176;12.070;2023-03-14T02:20:03;2.27;;;1.50;;
50213;SDS011;36103;54.176;12.070;2023-03-14T02:21:16;3.20;;;1.43;;
50213;SDS011;36103;54.176;12.070;2023-03-14T02:22:21;1.80;;;1.30;;
50213;SDS011;36103;54.176;12.070;2023-03-14T02:23:29;2.57;;;1.40;;
50213;SDS011;36103;54.176;12.070;2023-03-14T02:24:33;2.87;;;1.47;;
50213;SDS011;36103;54.176;12.070;2023-03-14T02:25:43;2.47;;;1.43;;
50213;SDS011;36103;54.176;12.070;2023-03-14T02:28:12;3.77;;;1.80;;
50213;SDS011;36103;54.176;12.070;2023-03-14T02:29:14;2.37;;;1.50;;
50213;SDS011;36103;54.176;12.070;2023-03-14T02:30:16;2.27;;;1.30;;
50213;SDS011;36103;54.176;12.070;2023-03-14T02:31:18;1.73;;;1.27;;
50213;SDS011;36103;54.176;12.070;2023-03-14T02:32:22;2.07;;;1.50;;
50213;SDS011;36103;54.176;12.070;2023-03-14T02:33:25;1.90;;;1.40;;
50213;SDS011;36103;54.176;12.070;2023-03-14T02:34:26;2.03;;;1.40;;
50213;SDS011;36103;54.176;12.070;2023-03-14T02:35:29;2.33;;;1.50;;
50213;SDS011;36103;54.176;12.070;2023-03-14T02:36:33;3.20;;;1.50;;
50213;SDS011;36103;54.176;12.070;2023-03-14T02:37:35;4.27;;;1.50;;
50213;SDS011;36103;54.176;12.070;2023-03-14T02:38:40;1.77;;;1.40;;
50213;SDS011;36103;54.176;12.070;2023-03-14T02:39:46;3.13;;;1.50;;
50213;SDS011;36103;54.176;12.070;2023-03-14T02:40:49;2.20;;;1.40;;
50213;SDS011;36103;54.176;12.070;2023-03-14T02:41:51;1.73;;;1.30;;
50213;SDS011;36103;54.176;12.070;2023-03-14T02:42:54;2.97;;;1.50;;
50213;SDS011;36103;54.176;12.070;2023-03-14T02:43:55;2.17;;;1.40;;
50213;SDS011;36103;54.176;12.070;2023-03-14T02:44:59;3.40;;;1.60;;
50213;SDS011;36103;54.176;12.070;2023-03-14T02:46:23;3.37;;;1.80;;
50213;SDS011;36103;54.176;12.070;2023-03-14T02:47:26;2.37;;;1.43;;
50213;SDS011;36103;54.176;12.070;2023-03-14T02:48:28;2.57;;;1.37;;
50213;SDS011;36103;54.176;12.070;2023-03-14T02:49:32;1.93;;;1.43;;
50213;SDS011;36103;54.176;12.070;2023-03-14T02:50:33;2.67;;;1.50;;
50213;SDS011;36103;54.176;12.070;2023-03-14T02:51:35;2.30;;;1.73;;
50213;SDS011;36103;54.176;12.070;2023-03-14T02:52:36;2.40;;;1.60;;
50213;SDS011;36103;54.176;12.070;2023-03-14T02:53:37;2.57;;;1.57;;
50213;SDS011;36103;54.176;12.070;2023-03-14T02:54:43;1.77;;;1.47;;
50213;SDS011;36103;54.176;12.070;2023-03-14T02:55:45;2.43;;;1.60;;
50213;SDS011;36103;54.176;12.070;2023-03-14T02:56:46;2.10;;;1.40;;
50213;SDS011;36103;54.176;12.070;2023-03-14T02:57:48;1.80;;;1.47;;
50213;SDS011;36103;54.176;12.070;2023-03-14T02:58:48;2.00;;;1.10;;
50213;SDS011;36103;54.176;12.070;2023-03-14T03:00:19;1.80;;;1.23;;
50213;SDS011;36103;54.176;12.070;2023-03-14T03:01:20;2.50;;;1.40;;
50213;SDS011;36103;54.176;12.070;2023-03-14T03:02:23;2.43;;;1.40;;
50213;SDS011;36103;54.176;12.070;2023-03-14T03:03:26;2.33;;;1.63;;
50213;SDS011;36103;54.176;12.070;2023-03-14T03:04:27;1.57;;;1.17;;
50213;SDS011;36103;54.176;12.070;2023-03-14T03:05:28;2.23;;;1.23;;
50213;SDS011;36103;54.176;12.070;2023-03-14T03:06:29;2.50;;;1.20;;
50213;SDS011;36103;54.176;12.070;2023-03-14T03:07:30;2.47;;;1.20;;
50213;SDS011;36103;54.176;12.070;2023-03-14T03:08:32;2.70;;;1.33;;
50213;SDS011;36103;54.176;12.070;2023-03-14T03:09:34;3.27;;;2.10;;
50213;SDS011;36103;54.176;12.070;2023-03-14T03:10:35;2.57;;;1.80;;
50213;SDS011;36103;54.176;12.070;2023-03-14T03:11:36;1.80;;;1.30;;
50213;SDS011;36103;54.176;12.070;2023-03-14T03:12:39;2.23;;;1.40;;
50213;SDS011;36103;54.176;12.070;2023-03-14T03:13:39;1.80;;;1.60;;
50213;SDS011;36103;54.176;12.070;2023-03-14T03:14:41;2.03;;;1.60;;
50213;SDS011;36103;54.176;12.070;2023-03-14T03:15:42;1.40;;;1.30;;
50213;SDS011;36103;54.176;12.070;2023-03-14T03:16:45;2.30;;;1.70;;
50213;SDS011;36103;54.176;12.070;2023-03-14T03:17:46;2.83;;;1.60;;
50213;SDS011;36103;54.176;12.070;2023-03-14T03:18:47;2.17;;;1.13;;
50213;SDS011;36103;54.176;12.070;2023-03-14T03:19:47;2.13;;;1.13;;
50213;SDS011;36103;54.176;12.070;2023-03-14T03:20:49;3.20;;;1.33;;
50213;SDS011;36103;54.176;12.070;2023-03-14T03:21:49;2.07;;;1.33;;
50213;SDS011;36103;54.176;12.070;2023-03-14T03:22:51;2.33;;;1.27;;
50213;SDS011;36103;54.176;12.070;2023-03-14T03:23:51;2.03;;;1.33;;
50213;SDS011;36103;54.176;12.070;2023-03-14T03:24:53;2.70;;;1.40;;
50213;SDS011;36103;54.176;12.070;2023-03-14T03:25:53;1.90;;;1.63;;
50213;SDS011;36103;54.176;12.070;2023-03-14T03:26:55;1.70;;;1.30;;
50213;SDS011;36103;54.176;12.070;2023-03-14T03:27:56;2.17;;;1.27;;
50213;SDS011;36103;54.176;12.070;2023-03-14T03:28:58;1.93;;;1.47;;
50213;SDS011;36103;54.176;12.070;2023-03-14T03:29:58;2.33;;;1.40;;
50213;SDS011;36103;54.176;12.070;2023-03-14T03:31:06;1.57;;;1.20;;
50213;SDS011;36103;54.176;12.070;2023-03-14T03:32:09;2.33;;;1.37;;
50213;SDS011;36103;54.176;12.070;2023-03-14T03:33:11;1.93;;;1.40;;
50213;SDS011;36103;54.176;12.070;2023-03-14T03:34:12;1.90;;;1.40;;
50213;SDS011;36103;54.176;12.070;2023-03-14T03:35:14;2.17;;;1.27;;
50213;SDS011;36103;54.176;12.070;2023-03-14T03:36:15;3.23;;;1.50;;
50213;SDS011;36103;54.176;12.070;2023-03-14T03:37:21;1.77;;;1.20;;
50213;SDS011;36103;54.176;12.070;2023-03-14T03:38:22;1.73;;;1.23;;
50213;SDS011;36103;54.176;12.070;2023-03-14T03:39:26;2.07;;;1.20;;
50213;SDS011;36103;54.176;12.070;2023-03-14T03:40:27;2.57;;;1.30;;
50213;SDS011;36103;54.176;12.070;2023-03-14T03:41:29;2.03;;;1.50;;
50213;SDS011;36103;54.176;12.070;2023-03-14T03:42:30;1.57;;;1.13;;
50213;SDS011;36103;54.176;12.070;2023-03-14T03:43:31;2.00;;;1.30;;
50213;SDS011;36103;54.176;12.070;2023-03-14T03:44:33;1.80;;;1.50;;
50213;SDS011;36103;54.176;12.070;2023-03-14T03:45:35;2.10;;;1.37;;
50213;SDS011;36103;54.176;12.070;2023-03-14T03:46:36;1.20;;;1.10;;
50213;SDS011;36103;54.176;12.070;2023-03-14T03:47:39;1.73;;;1.27;;
50213;SDS011;36103;54.176;12.070;2023-03-14T03:48:40;1.80;;;1.20;;
50213;SDS011;36103;54.176;12.070;2023-03-14T03:49:41;2.10;;;1.63;;
50213;SDS011;36103;54.176;12.070;2023-03-14T03:50:44;3.10;;;1.50;;
50213;SDS011;36103;54.176;12.070;2023-03-14T03:51:47;1.37;;;1.20;;
50213;SDS011;36103;54.176;12.070;2023-03-14T03:52:49;1.80;;;1.30;;
50213;SDS011;36103;54.176;12.070;2023-03-14T03:53:50;2.77;;;1.40;;
50213;SDS011;36103;54.176;12.070;2023-03-14T03:54:57;1.53;;;1.33;;
50213;SDS011;36103;54.176;12.070;2023-03-14T03:55:58;2.20;;;1.50;;
50213;SDS011;36103;54.176;12.070;2023-03-14T03:57:00;2.00;;;1.40;;
50213;SDS011;36103;54.176;12.070;2023-03-14T03:58:01;2.17;;;1.50;;
50213;SDS011;36103;54.176;12.070;2023-03-14T03:59:02;1.40;;;1.10;;
50213;SDS011;36103;54.176;12.070;2023-03-14T04:00:03;2.20;;;1.40;;
50213;SDS011;36103;54.176;12.070;2023-03-14T04:01:14;2.27;;;1.37;;
50213;SDS011;36103;54.176;12.070;2023-03-14T04:02:15;1.87;;;1.20;;
50213;SDS011;36103;54.176;12.070;2023-03-14T04:03:18;1.73;;;1.37;;
50213;SDS011;36103;54.176;12.070;2023-03-14T04:04:18;2.20;;;1.50;;
50213;SDS011;36103;54.176;12.070;2023-03-14T04:05:20;2.67;;;1.47;;
50213;SDS011;36103;54.176;12.070;2023-03-14T04:06:30;2.30;;;1.33;;
50213;SDS011;36103;54.176;12.070;2023-03-14T04:07:33;1.63;;;1.00;;
50213;SDS011;36103;54.176;12.070;2023-03-14T04:08:34;1.57;;;1.10;;
50213;SDS011;36103;54.176;12.070;2023-03-14T04:09:37;2.67;;;1.27;;
50213;SDS011;36103;54.176;12.070;2023-03-14T04:11:04;1.63;;;1.20;;
50213;SDS011;36103;54.176;12.070;2023-03-14T04:12:28;2.13;;;1.10;;
50213;SDS011;36103;54.176;12.070;2023-03-14T04:13:47;1.57;;;1.20;;
50213;SDS011;36103;54.176;12.070;2023-03-14T04:14:48;1.53;;;1.40;;
50213;SDS011;36103;54.176;12.070;2023-03-14T04:15:54;1.57;;;1.40;;
50213;SDS011;36103;54.176;12.070;2023-03-14T04:17:01;1.37;;;1.23;;
50213;SDS011;36103;54.176;12.070;2023-03-14T04:18:01;1.43;;;0.93;;
50213;SDS011;36103;54.176;12.070;2023-03-14T04:19:05;1.60;;;1.40;;
50213;SDS011;36103;54.176;12.070;2023-03-14T04:20:07;1.80;;;1.33;;
50213;SDS011;36103;54.176;12.070;2023-03-14T04:21:11;1.73;;;1.40;;
50213;SDS011;36103;54.176;12.070;2023-03-14T04:22:20;1.40;;;1.20;;
50213;SDS011;36103;54.176;12.070;2023-03-14T04:23:24;1.13;;;1.03;;
50213;SDS011;36103;54.176;12.070;2023-03-14T04:24:25;1.30;;;1.10;;
50213;SDS011;36103;54.176;12.070;2023-03-14T04:25:28;2.77;;;1.10;;
50213;SDS011;36103;54.176;12.070;2023-03-14T04:26:31;2.53;;;1.37;;
50213;SDS011;36103;54.176;12.070;2023-03-14T04:27:33;2.37;;;1.57;;
50213;SDS011;36103;54.176;12.070;2023-03-14T04:28:35;2.03;;;1.33;;
50213;SDS011;36103;54.176;12.070;2023-03-14T04:29:39;2.27;;;1.37;;
50213;SDS011;36103;54.176;12.070;2023-03-14T04:30:40;1.97;;;1.23;;
50213;SDS011;36103;54.176;12.070;2023-03-14T04:31:45;1.10;;;0.90;;
50213;SDS011;36103;54.176;12.070;2023-03-14T04:32:46;1.93;;;1.40;;
50213;SDS011;36103;54.176;12.070;2023-03-14T04:33:48;2.47;;;1.20;;
50213;SDS011;36103;54.176;12.070;2023-03-14T04:34:53;0.80;;;0.80;;
50213;SDS011;36103;54.176;12.070;2023-03-14T04:35:54;2.03;;;1.30;;
50213;SDS011;36103;54.176;12.070;2023-03-14T04:36:56;1.80;;;0.97;;
50213;SDS011;36103;54.176;12.070;2023-03-14T04:38:08;2.33;;;1.50;;
50213;SDS011;36103;54.176;12.070;2023-03-14T04:39:09;1.43;;;1.20;;
50213;SDS011;36103;54.176;12.070;2023-03-14T04:40:15;1.87;;;1.20;;
50213;SDS011;36103;54.176;12.070;2023-03-14T04:41:16;1.53;;;1.20;;
50213;SDS011;36103;54.176;12.070;2023-03-14T04:42:17;1.43;;;1.20;;
50213;SDS011;36103;54.176;12.070;2023-03-14T04:43:18;1.43;;;1.00;;
50213;SDS011;36103;54.176;12.070;2023-03-14T04:44:24;1.67;;;1.27;;
50213;SDS011;36103;54.176;12.070;2023-03-14T04:45:26;1.70;;;1.20;;
50213;SDS011;36103;54.176;12.070;2023-03-14T04:46:31;2.70;;;1.43;;
50213;SDS011;36103;54.176;12.070;2023-03-14T04:47:34;1.80;;;1.27;;
50213;SDS011;36103;54.176;12.070;2023-03-14T04:48:35;2.80;;;1.37;;
50213;SDS011;36103;54.176;12.070;2023-03-14T04:49:38;2.20;;;1.10;;
50213;SDS011;36103;54.176;12.070;2023-03-14T04:50:41;1.90;;;0.90;;
50213;SDS011;36103;54.176;12.070;2023-03-14T04:51:43;1.80;;;1.30;;
50213;SDS011;36103;54.176;12.070;2023-03-14T04:52:44;1.20;;;1.10;;
50213;SDS011;36103;54.176;12.070;2023-03-14T04:53:45;1.30;;;1.20;;
50213;SDS011;36103;54.176;12.070;2023-03-14T04:54:47;1.40;;;1.27;;
50213;SDS011;36103;54.176;12.070;2023-03-14T04:55:49;1.87;;;1.10;;
50213;SDS011;36103;54.176;12.070;2023-03-14T04:56:50;1.77;;;1.10;;
50213;SDS011;36103;54.176;12.070;2023-03-14T04:57:51;2.90;;;1.40;;
50213;SDS011;36103;54.176;12.070;2023-03-14T04:58:52;1.23;;;1.13;;
50213;SDS011;36103;54.176;12.070;2023-03-14T04:59:54;1.43;;;1.20;;
50213;SDS011;36103;54.176;12.070;2023-03-14T05:01:24;1.53;;;1.10;;
50213;SDS011;36103;54.176;12.070;2023-03-14T05:02:58;1.53;;;1.03;;
50213;SDS011;36103;54.176;12.070;2023-03-14T05:04:26;2.27;;;1.37;;
50213;SDS011;36103;54.176;12.070;2023-03-14T05:05:38;2.03;;;1.13;;
50213;SDS011;36103;54.176;12.070;2023-03-14T05:06:59;1.43;;;1.13;;
50213;SDS011;36103;54.176;12.070;2023-03-14T05:08:15;2.00;;;1.10;;
50213;SDS011;36103;54.176;12.070;2023-03-14T05:09:34;1.57;;;0.97;;
50213;SDS011;36103;54.176;12.070;2023-03-14T05:10:55;1.57;;;1.20;;
50213;SDS011;36103;54.176;12.070;2023-03-14T05:12:10;1.40;;;1.30;;
50213;SDS011;36103;54.176;12.070;2023-03-14T05:13:24;2.40;;;1.33;;
50213;SDS011;36103;54.176;12.070;2023-03-14T05:14:39;2.17;;;1.40;;
50213;SDS011;36103;54.176;12.070;2023-03-14T05:16:10;1.10;;;1.00;;
50213;SDS011;36103;54.176;12.070;2023-03-14T05:17:33;1.57;;;1.17;;
50213;SDS011;36103;54.176;12.070;2023-03-14T05:18:38;1.10;;;1.00;;
50213;SDS011;36103;54.176;12.070;2023-03-14T05:19:45;1.73;;;1.30;;
50213;SDS011;36103;54.176;12.070;2023-03-14T05:21:00;1.20;;;1.10;;
50213;SDS011;36103;54.176;12.070;2023-03-14T05:22:22;1.90;;;1.10;;
50213;SDS011;36103;54.176;12.070;2023-03-14T05:23:43;1.10;;;1.00;;
50213;SDS011;36103;54.176;12.070;2023-03-14T05:25:03;1.30;;;0.93;;
50213;SDS011;36103;54.176;12.070;2023-03-14T05:26:34;2.37;;;1.23;;
50213;SDS011;36103;54.176;12.070;2023-03-14T05:28:06;1.40;;;1.20;;
50213;SDS011;36103;54.176;12.070;2023-03-14T05:29:40;1.30;;;1.20;;
50213;SDS011;36103;54.176;12.070;2023-03-14T05:31:05;1.20;;;1.10;;
50213;SDS011;36103;54.176;12.070;2023-03-14T05:32:26;1.10;;;1.00;;
50213;SDS011;36103;54.176;12.070;2023-03-14T05:33:51;1.00;;;0.90;;
50213;SDS011;36103;54.176;12.070;2023-03-14T05:35:22;1.47;;;1.10;;
50213;SDS011;36103;54.176;12.070;2023-03-14T05:36:38;1.17;;;1.00;;
50213;SDS011;36103;54.176;12.070;2023-03-14T05:37:55;1.30;;;1.20;;
50213;SDS011;36103;54.176;12.070;2023-03-14T05:39:10;1.80;;;1.17;;
50213;SDS011;36103;54.176;12.070;2023-03-14T05:40:35;1.50;;;1.10;;
50213;SDS011;36103;54.176;12.070;2023-03-14T05:41:41;1.33;;;1.00;;
50213;SDS011;36103;54.176;12.070;2023-03-14T05:42:59;1.53;;;1.20;;
50213;SDS011;36103;54.176;12.070;2023-03-14T05:44:18;1.87;;;1.10;;
50213;SDS011;36103;54.176;12.070;2023-03-14T05:45:29;1.47;;;1.30;;
50213;SDS011;36103;54.176;12.070;2023-03-14T05:46:39;1.10;;;1.00;;
50213;SDS011;36103;54.176;12.070;2023-03-14T05:48:00;1.13;;;1.03;;
50213;SDS011;36103;54.176;12.070;2023-03-14T05:49:27;1.43;;;1.10;;
50213;SDS011;36103;54.176;12.070;2023-03-14T05:50:58;1.10;;;1.00;;
50213;SDS011;36103;54.176;12.070;2023-03-14T05:52:17;1.67;;;1.13;;
50213;SDS011;36103;54.176;12.070;2023-03-14T05:53:31;1.63;;;1.10;;
50213;SDS011;36103;54.176;12.070;2023-03-14T05:55:09;1.20;;;0.90;;
50213;SDS011;36103;54.176;12.070;2023-03-14T05:56:45;1.50;;;1.10;;
50213;SDS011;36103;54.176;12.070;2023-03-14T05:58:01;1.20;;;1.00;;
50213;SDS011;36103;54.176;12.070;2023-03-14T05:59:19;1.10;;;1.00;;
50213;SDS011;36103;54.176;12.070;2023-03-14T06:00:45;1.20;;;1.10;;
50213;SDS011;36103;54.176;12.070;2023-03-14T06:02:10;1.33;;;1.07;;
50213;SDS011;36103;54.176;12.070;2023-03-14T06:03:22;1.87;;;1.03;;
50213;SDS011;36103;54.176;12.070;2023-03-14T06:04:23;1.53;;;1.13;;
50213;SDS011;36103;54.176;12.070;2023-03-14T06:05:28;1.43;;;1.10;;
50213;SDS011;36103;54.176;12.070;2023-03-14T06:06:34;1.10;;;0.80;;
50213;SDS011;36103;54.176;12.070;2023-03-14T06:07:35;1.40;;;1.00;;
50213;SDS011;36103;54.176;12.070;2023-03-14T06:08:39;2.13;;;0.97;;
50213;SDS011;36103;54.176;12.070;2023-03-14T06:09:42;1.20;;;0.80;;
50213;SDS011;36103;54.176;12.070;2023-03-14T06:10:44;1.20;;;1.10;;
50213;SDS011;36103;54.176;12.070;2023-03-14T06:11:44;1.00;;;0.87;;
50213;SDS011;36103;54.176;12.070;2023-03-14T06:12:46;1.23;;;1.10;;
50213;SDS011;36103;54.176;12.070;2023-03-14T06:13:47;1.47;;;1.00;;
50213;SDS011;36103;54.176;12.070;2023-03-14T06:14:49;1.40;;;1.00;;
50213;SDS011;36103;54.176;12.070;2023-03-14T06:15:50;1.57;;;1.00;;
50213;SDS011;36103;54.176;12.070;2023-03-14T06:16:52;1.10;;;0.90;;
50213;SDS011;36103;54.176;12.070;2023-03-14T06:17:54;1.30;;;1.10;;
50213;SDS011;36103;54.176;12.070;2023-03-14T06:18:57;0.77;;;0.70;;
50213;SDS011;36103;54.176;12.070;2023-03-14T06:19:58;1.10;;;0.90;;
50213;SDS011;36103;54.176;12.070;2023-03-14T06:20:59;1.53;;;1.10;;
50213;SDS011;36103;54.176;12.070;2023-03-14T06:22:01;1.23;;;0.87;;
50213;SDS011;36103;54.176;12.070;2023-03-14T06:23:04;1.13;;;0.93;;
50213;SDS011;36103;54.176;12.070;2023-03-14T06:24:07;1.73;;;0.90;;
50213;SDS011;36103;54.176;12.070;2023-03-14T06:25:14;1.23;;;0.93;;
50213;SDS011;36103;54.176;12.070;2023-03-14T06:26:19;0.80;;;0.77;;
50213;SDS011;36103;54.176;12.070;2023-03-14T06:27:20;1.00;;;0.90;;
50213;SDS011;36103;54.176;12.070;2023-03-14T06:28:22;0.80;;;0.80;;
50213;SDS011;36103;54.176;12.070;2023-03-14T06:29:23;2.53;;;1.03;;
50213;SDS011;36103;54.176;12.070;2023-03-14T06:30:24;1.90;;;1.30;;